Meteo Giornale » Osservazioni meteo Algeria » Tebessa
ore: 22:00 - Osservazioni Meteo Tebessa
Lat. 35° 29' N Lon. 8° 8' E Alt. 813 metri s.l.m.
28 °C
Poco Nuvoloso
Temp. 24 Ore
22 °C
37 °C
Sud-Ovest
11.1 Km/h
Dew point 10 °C
Umidità 32 %
Visibilità 10 Km
Il sole sorge alle ore 05:59
Il sole tramonta alle ore 18:55
| Data e Ora | Cielo e Fenomeni | T °C | DP °C | Um. % | Pres. hPa | Vis. km | Vento km/h | |
|---|---|---|---|---|---|---|---|---|
| Oggi h: 22:00 | Poco Nuvoloso | 28 | 10 | 32 | 1025 | 10 | SO 11.1 | |
| Oggi h: 21:00 | Nuvoloso | 28 | 10 | 32 | 1025 | 10 | O/NO 14.8 | |
| Oggi h: 20:00 | Nuvoloso | 29 | 10 | 30 | 1024 | 10 | N 5.5 | |
| Oggi h: 19:00 | Nuvoloso | 30 | 10 | 28 | 1023 | 10 | E/NE 9.3 | |
| Oggi h: 18:00 | Nuvoloso | 32 | 10 | 25 | 1023 | 10 | E 25.9 | |
| Oggi h: 17:00 | Temporale | 33 | 6 | 18 | 1023 | 10 | NO 9.3 | |
| Oggi h: 16:00 | Nuvoloso | 36 | 5 | 14 | 1022 | 10 | O/NO 27.8 | |
| Oggi h: 15:00 | Nuvoloso | 37 | 5 | 13 | 1022 | 10 | NO 20.3 | |
| Oggi h: 14:00 | Nuvoloso | 37 | 6 | 14 | 1022 | 10 | NO 9.3 | |
| Oggi h: 13:00 | Nuvoloso | 37 | 8 | 17 | 1023 | 10 | N/NO 25.9 | |
| Oggi h: 12:00 | Nuvoloso | 37 | 9 | 18 | 1023 | 10 | NO 16.7 | |
| Oggi h: 11:00 | Nuvoloso | 36 | 10 | 20 | 1023 | 10 | N 5.5 | |
| Oggi h: 10:00 | Nuvoloso | 32 | 11 | 27 | 1023 | 10 | N 3.7 | |
| Oggi h: 09:00 | Nuvoloso | 29 | 12 | 35 | 1023 | 10 | N 3.7 | |
| Oggi h: 08:00 | Poco Nuvoloso | 25 | 13 | 47 | 1023 | 10 | N 1.8 | |
| Oggi h: 07:00 | Poco Nuvoloso | 22 | 13 | 56 | 1022 | 10 | O/SO 7.4 | |
| Oggi h: 06:00 | Poco Nuvoloso | 22 | 13 | 56 | 1022 | 10 | SE 9.3 | |
| Oggi h: 05:00 | Nuvoloso | 22 | 13 | 56 | 1022 | 10 | E/SE 9.3 | |
| Oggi h: 04:00 | Nuvoloso | 22 | 13 | 56 | 1023 | 10 | N 3.7 | |
| Oggi h: 03:00 | Nuvoloso | 25 | 12 | 44 | 1024 | 10 | N 5.5 | |
| Oggi h: 02:00 | Nuvoloso | 24 | 12 | 47 | 1025 | 10 | O/SO 11.1 | |
| Oggi h: 01:00 | Nuvoloso | 25 | 10 | 38 | 1025 | 10 | O/NO 20.3 | |
| Oggi h: 00:00 | Nuvoloso | 24 | 12 | 47 | 1024 | 10 | N 5.5 | |



